Time;durP1;ratioP1;P1;durP2;ratioP2;P2;SDS_P1;SDS_P2;PMS_P1;PMS_P2;Temp;Humidity;BMP_temperature;BMP_pressure;BME280_temperature;BME280_humidity;BME280_pressure;Samples;Min_cycle;Max_cycle;Signal;HPM_P1;HPM_P2
2022/03/05 00:00:43;;;;;;;22.13;12.50;;;6.30;77.20;;;;;;5036289;28;20075;-75
2022/03/05 00:03:10;;;;;;;21.60;13.40;;;6.40;77.20;;;;;;5051917;28;20029;-76
2022/03/05 00:05:36;;;;;;;19.13;11.63;;;6.30;77.10;;;;;;5044595;28;20396;-76
2022/03/05 00:08:03;;;;;;;19.30;10.85;;;6.30;77.20;;;;;;5035874;28;20044;-76
2022/03/05 00:10:29;;;;;;;14.85;8.82;;;6.20;77.20;;;;;;5035736;28;20041;-76
2022/03/05 00:12:54;;;;;;;12.55;8.50;;;6.20;77.80;;;;;;5036012;28;20470;-76
2022/03/05 00:15:20;;;;;;;15.73;8.18;;;6.20;78.00;;;;;;5037090;28;20056;-76
2022/03/05 00:17:49;;;;;;;10.05;6.38;;;6.30;78.30;;;;;;5036835;28;20032;-76
2022/03/05 00:20:15;;;;;;;13.15;7.00;;;6.30;78.30;;;;;;5073267;28;20585;-75
2022/03/05 00:22:41;;;;;;;14.43;6.85;;;6.30;78.00;;;;;;5075405;28;20071;-76
2022/03/05 00:25:07;;;;;;;12.02;7.10;;;6.30;78.20;;;;;;5052071;28;20021;-76
2022/03/05 00:27:33;;;;;;;12.65;7.25;;;6.30;78.20;;;;;;5056742;28;20112;-76
2022/03/05 00:29:59;;;;;;;14.60;7.30;;;6.30;78.00;;;;;;5056828;28;20021;-76
2022/03/05 00:32:24;;;;;;;15.35;7.85;;;6.20;78.20;;;;;;5045408;28;20029;-76
2022/03/05 00:34:50;;;;;;;13.55;6.88;;;6.20;78.00;;;;;;5035309;28;20029;-76
2022/03/05 00:37:16;;;;;;;15.55;6.90;;;6.20;78.00;;;;;;5035347;28;20033;-76
2022/03/05 00:39:42;;;;;;;14.68;7.28;;;6.20;77.50;;;;;;5035262;28;20055;-76
2022/03/05 00:42:07;;;;;;;14.55;7.60;;;6.20;77.70;;;;;;5036685;28;20021;-75
2022/03/05 00:44:33;;;;;;;13.77;7.93;;;6.20;77.80;;;;;;5044754;28;20494;-76
2022/03/05 00:46:59;;;;;;;13.05;6.85;;;6.20;77.90;;;;;;5056380;28;20029;-75
2022/03/05 00:49:25;;;;;;;10.50;6.57;;;6.20;77.70;;;;;;5053645;28;20052;-75
2022/03/05 00:51:52;;;;;;;10.50;7.50;;;6.20;78.00;;;;;;5035386;28;20029;-75
2022/03/05 00:54:19;;;;;;;11.13;6.63;;;6.10;77.80;;;;;;5034997;28;20055;-76
2022/03/05 00:56:44;;;;;;;11.48;7.32;;;6.10;78.40;;;;;;5034976;28;20607;-76
2022/03/05 00:59:10;;;;;;;14.80;7.40;;;6.00;78.60;;;;;;5035126;28;20029;-75
2022/03/05 01:01:36;;;;;;;15.63;7.88;;;6.00;78.40;;;;;;5034909;28;20068;-76
2022/03/05 01:04:01;;;;;;;13.00;8.30;;;6.00;78.30;;;;;;5036199;28;20076;-76
2022/03/05 01:06:30;;;;;;;13.38;7.53;;;6.00;78.30;;;;;;5036091;28;20462;-76
2022/03/05 01:08:56;;;;;;;12.73;7.25;;;6.00;78.60;;;;;;5034785;28;20175;-75
2022/03/05 01:11:22;;;;;;;13.80;6.88;;;5.90;78.60;;;;;;5034956;28;20037;-75
2022/03/05 01:13:48;;;;;;;12.82;7.90;;;6.00;78.50;;;;;;5034669;28;20033;-76
2022/03/05 01:16:13;;;;;;;14.63;8.25;;;5.90;78.30;;;;;;5035931;28;20031;-76
2022/03/05 01:18:39;;;;;;;10.77;7.15;;;5.90;78.40;;;;;;5042375;28;20028;-75
2022/03/05 01:21:05;;;;;;;14.35;7.53;;;5.90;78.60;;;;;;5039742;28;20030;-76
2022/03/05 01:23:30;;;;;;;15.80;7.05;;;5.80;78.80;;;;;;5034923;28;20119;-76
2022/03/05 01:25:56;;;;;;;12.00;7.80;;;5.80;78.80;;;;;;5034315;28;20036;-75
2022/03/05 01:28:22;;;;;;;13.63;6.95;;;5.80;78.60;;;;;;5035593;28;20412;-75
2022/03/05 01:30:47;;;;;;;9.80;7.45;;;5.80;78.90;;;;;;5053841;28;20083;-76
2022/03/05 01:33:15;;;;;;;18.30;7.18;;;5.70;79.00;;;;;;5055587;28;20025;-76
2022/03/05 01:35:45;;;;;;;13.20;7.53;;;5.80;78.80;;;;;;5043971;28;20033;-76
2022/03/05 01:38:12;;;;;;;13.38;7.35;;;5.70;79.10;;;;;;5034352;28;20034;-75
2022/03/05 01:40:39;;;;;;;15.07;6.93;;;5.70;78.90;;;;;;5034199;28;20025;-75
2022/03/05 01:43:05;;;;;;;11.27;7.03;;;5.70;78.70;;;;;;5035694;28;20468;-76
2022/03/05 01:45:31;;;;;;;13.48;6.28;;;5.70;78.80;;;;;;5035564;28;20029;-76
2022/03/05 01:47:56;;;;;;;10.45;6.45;;;5.70;78.70;;;;;;5033912;28;20033;-75
2022/03/05 01:50:22;;;;;;;18.30;7.05;;;5.70;78.60;;;;;;5033979;28;20117;-76
2022/03/05 01:52:48;;;;;;;12.18;6.65;;;5.70;78.70;;;;;;5035521;28;20095;-75
2022/03/05 01:55:13;;;;;;;11.07;6.50;;;5.70;78.70;;;;;;5036600;28;20021;-75
2022/03/05 01:57:40;;;;;;;8.52;6.00;;;5.70;78.70;;;;;;5055556;28;20068;-75
2022/03/05 02:00:09;;;;;;;14.40;7.05;;;5.70;78.80;;;;;;5055129;28;20028;-75
2022/03/05 02:02:35;;;;;;;10.57;6.07;;;5.70;78.70;;;;;;5045923;28;20029;-75
2022/03/05 02:05:01;;;;;;;8.82;5.65;;;5.80;78.60;;;;;;5035414;28;20724;-76
2022/03/05 02:07:26;;;;;;;10.18;5.93;;;5.70;78.70;;;;;;5037033;28;20503;-75
2022/03/05 02:09:52;;;;;;;12.05;6.00;;;5.70;78.80;;;;;;5053613;28;20029;-75
2022/03/05 02:12:18;;;;;;;9.88;5.70;;;5.70;78.80;;;;;;5055108;28;20048;-75
2022/03/05 02:14:43;;;;;;;9.60;5.30;;;5.70;78.80;;;;;;5045309;28;20025;-75
2022/03/05 02:17:10;;;;;;;14.75;5.30;;;5.70;78.80;;;;;;5033701;28;20026;-75
2022/03/05 02:19:36;;;;;;;11.35;5.55;;;5.70;78.80;;;;;;5047583;28;20035;-76
2022/03/05 02:22:03;;;;;;;11.15;5.32;;;5.70;78.90;;;;;;5049391;28;20039;-76
2022/03/05 02:24:31;;;;;;;9.85;5.45;;;5.60;79.30;;;;;;5038814;28;20032;-76
2022/03/05 02:27:04;;;;;;;10.02;5.15;;;5.70;78.90;;;;;;5038996;28;20041;-76
2022/03/05 02:29:34;;;;;;;12.50;5.90;;;5.70;79.20;;;;;;5039154;28;20041;-75
2022/03/05 02:32:01;;;;;;;11.30;5.07;;;5.70;79.00;;;;;;5039450;28;20056;-75
2022/03/05 02:34:27;;;;;;;7.78;5.18;;;5.60;79.10;;;;;;5039050;28;20087;-75
2022/03/05 02:36:53;;;;;;;6.57;4.75;;;5.60;79.40;;;;;;5038982;28;20603;-75
2022/03/05 02:39:19;;;;;;;7.47;5.25;;;5.70;79.00;;;;;;5037661;28;20084;-75
2022/03/05 02:41:44;;;;;;;10.18;5.85;;;5.70;78.70;;;;;;5037437;28;20048;-76
2022/03/05 02:44:10;;;;;;;7.28;4.97;;;5.60;79.00;;;;;;5037436;28;20605;-75
2022/03/05 02:46:36;;;;;;;10.63;5.53;;;5.60;79.10;;;;;;5037689;28;20522;-76
2022/03/05 02:49:05;;;;;;;13.23;6.18;;;5.60;78.80;;;;;;5038748;28;20035;-76
2022/03/05 02:51:31;;;;;;;8.15;4.63;;;5.60;78.90;;;;;;5038844;28;20029;-76
2022/03/05 02:53:57;;;;;;;7.15;4.85;;;5.60;79.10;;;;;;5038702;28;20029;-75
2022/03/05 02:56:23;;;;;;;10.93;5.95;;;5.60;78.90;;;;;;5038556;28;20025;-75
2022/03/05 02:58:48;;;;;;;8.20;4.63;;;5.60;78.80;;;;;;5037479;28;20383;-75
2022/03/05 03:01:14;;;;;;;10.43;5.38;;;5.50;79.10;;;;;;5036991;28;20033;-75
2022/03/05 03:03:40;;;;;;;9.05;4.47;;;5.50;79.10;;;;;;5038562;28;20030;-76
2022/03/05 03:06:08;;;;;;;11.98;5.13;;;5.50;79.10;;;;;;5038237;28;20049;-75
2022/03/05 03:08:34;;;;;;;9.27;5.88;;;5.50;78.80;;;;;;5038257;28;20029;-76
2022/03/05 03:11:00;;;;;;;8.38;4.65;;;5.40;79.10;;;;;;5036817;28;20402;-76
2022/03/05 03:13:26;;;;;;;8.88;4.93;;;5.40;79.10;;;;;;5038510;28;20029;-75
2022/03/05 03:15:51;;;;;;;7.45;4.45;;;5.40;78.90;;;;;;5036892;28;20121;-76
2022/03/05 03:18:18;;;;;;;7.13;4.93;;;5.30;79.20;;;;;;5039597;28;20033;-76
2022/03/05 03:20:44;;;;;;;9.13;4.90;;;5.20;79.30;;;;;;5043254;28;20702;-75
2022/03/05 03:23:10;;;;;;;8.80;5.07;;;5.20;79.60;;;;;;5038096;28;20031;-76
2022/03/05 03:25:38;;;;;;;13.40;5.75;;;5.20;79.60;;;;;;5038031;28;20057;-75
2022/03/05 03:28:05;;;;;;;11.63;5.43;;;5.20;79.30;;;;;;5036924;28;20033;-75
2022/03/05 03:30:31;;;;;;;10.48;5.47;;;5.20;79.40;;;;;;5037853;28;20075;-75
2022/03/05 03:32:56;;;;;;;7.53;4.93;;;5.20;79.60;;;;;;5038836;28;20045;-75
2022/03/05 03:35:22;;;;;;;10.52;5.10;;;5.20;79.30;;;;;;5055805;28;20514;-76
2022/03/05 03:37:49;;;;;;;10.52;4.72;;;5.20;79.10;;;;;;5056289;28;20029;-76
2022/03/05 03:40:16;;;;;;;11.35;4.90;;;5.20;79.10;;;;;;5040048;28;20021;-75
2022/03/05 03:42:43;;;;;;;9.30;5.35;;;5.10;79.10;;;;;;5036439;28;20033;-75
2022/03/05 03:45:10;;;;;;;7.80;4.97;;;5.10;79.50;;;;;;5037954;28;20033;-76
2022/03/05 03:47:37;;;;;;;11.77;5.68;;;5.10;79.70;;;;;;5037801;28;20048;-75
2022/03/05 03:50:05;;;;;;;8.10;5.10;;;5.10;79.40;;;;;;5036099;28;20561;-75
2022/03/05 03:52:31;;;;;;;12.90;5.38;;;5.00;79.60;;;;;;5069535;28;20554;-76
2022/03/05 03:54:57;;;;;;;6.68;4.60;;;5.10;79.30;;;;;;5037177;28;20037;-76
2022/03/05 03:57:23;;;;;;;7.90;5.07;;;5.00;79.40;;;;;;5036281;28;20029;-75
2022/03/05 03:59:51;;;;;;;7.93;4.68;;;4.90;79.40;;;;;;5036514;28;20021;-75
2022/03/05 04:02:18;;;;;;;7.50;5.15;;;5.00;79.60;;;;;;5037420;28;20025;-75
2022/03/05 04:04:44;;;;;;;8.55;4.75;;;5.00;79.20;;;;;;5037568;28;20045;-75
2022/03/05 04:09:54;;;;;;;5.13;4.28;;;5.10;78.90;;;;;;5041404;28;20108;-75
2022/03/05 04:12:20;;;;;;;7.07;4.88;;;5.00;78.30;;;;;;5055575;28;20065;-75
2022/03/05 04:14:46;;;;;;;9.73;5.13;;;4.90;78.70;;;;;;5055682;28;20406;-75
2022/03/05 04:17:12;;;;;;;8.43;5.03;;;4.90;78.70;;;;;;5042378;28;20136;-76
2022/03/05 04:19:38;;;;;;;7.53;4.65;;;5.00;78.60;;;;;;5050147;28;20021;-75
2022/03/05 04:22:04;;;;;;;9.52;4.97;;;5.00;78.60;;;;;;5055851;28;20047;-76
2022/03/05 04:24:29;;;;;;;6.47;4.85;;;5.00;78.50;;;;;;5037531;28;20423;-76
2022/03/05 04:26:55;;;;;;;11.13;5.10;;;5.00;78.40;;;;;;5035477;28;20033;-75
2022/03/05 04:29:21;;;;;;;8.38;5.22;;;5.00;78.40;;;;;;5035500;28;20037;-75
2022/03/05 04:31:46;;;;;;;12.98;5.70;;;5.00;78.30;;;;;;5037113;28;20057;-75
2022/03/05 04:34:12;;;;;;;10.85;5.32;;;5.00;78.40;;;;;;5035695;28;20100;-75
2022/03/05 04:36:38;;;;;;;5.60;4.22;;;4.90;78.30;;;;;;5036640;28;20041;-75
2022/03/05 04:39:03;;;;;;;7.15;5.68;;;4.90;78.40;;;;;;5037031;28;20108;-76
2022/03/05 04:41:29;;;;;;;6.10;4.68;;;4.90;78.40;;;;;;5035700;28;20056;-75
2022/03/05 04:43:55;;;;;;;10.70;5.13;;;5.00;78.30;;;;;;5035279;28;20017;-75
2022/03/05 04:46:20;;;;;;;8.15;5.20;;;5.00;78.30;;;;;;5034324;28;20471;-76
2022/03/05 04:48:46;;;;;;;8.88;4.88;;;5.00;78.30;;;;;;5034776;28;20395;-76
2022/03/05 04:51:12;;;;;;;9.63;5.20;;;5.10;78.30;;;;;;5036468;28;20041;-76
2022/03/05 04:53:37;;;;;;;9.20;4.88;;;5.20;78.20;;;;;;5035143;28;20431;-75
2022/03/05 04:56:03;;;;;;;6.00;4.55;;;5.20;78.20;;;;;;5035041;28;20021;-75
2022/03/05 04:58:29;;;;;;;8.35;5.03;;;5.20;78.20;;;;;;5035054;28;20060;-75
2022/03/05 05:00:55;;;;;;;5.22;4.43;;;5.30;78.10;;;;;;5036299;28;20052;-75
2022/03/05 05:03:20;;;;;;;7.57;5.20;;;5.30;77.90;;;;;;5035027;28;20057;-76
2022/03/05 05:05:46;;;;;;;9.68;5.07;;;5.30;78.10;;;;;;5034409;28;20153;-75
2022/03/05 05:08:13;;;;;;;6.82;5.00;;;5.40;78.20;;;;;;5034682;28;20112;-76
2022/03/05 05:10:38;;;;;;;7.38;4.35;;;5.30;78.80;;;;;;5036042;28;20029;-76
2022/03/05 05:13:04;;;;;;;9.38;5.07;;;5.40;78.60;;;;;;5037631;28;20155;-76
2022/03/05 05:15:30;;;;;;;10.55;5.57;;;5.50;78.40;;;;;;5055902;28;20033;-76
2022/03/05 05:17:59;;;;;;;5.07;4.00;;;5.50;78.30;;;;;;5055948;28;20036;-76
2022/03/05 05:20:25;;;;;;;9.75;4.88;;;5.50;78.20;;;;;;5052757;28;20020;-76
2022/03/05 05:22:51;;;;;;;6.03;4.20;;;5.50;78.40;;;;;;5054218;28;20024;-76
2022/03/05 05:25:17;;;;;;;6.05;3.70;;;5.50;78.90;;;;;;5054577;28;20028;-75
2022/03/05 05:27:43;;;;;;;7.15;3.83;;;5.60;78.90;;;;;;5036224;28;20833;-76
2022/03/05 05:30:09;;;;;;;4.30;3.35;;;5.60;79.40;;;;;;5035689;28;20468;-75
2022/03/05 05:32:35;;;;;;;5.15;3.55;;;5.60;79.20;;;;;;5034400;28;20022;-76
2022/03/05 05:35:01;;;;;;;4.20;3.35;;;5.50;79.80;;;;;;5034514;28;20041;-75
2022/03/05 05:37:27;;;;;;;4.50;3.38;;;5.60;79.80;;;;;;5034051;28;20029;-75
2022/03/05 05:39:53;;;;;;;5.07;2.90;;;5.60;80.00;;;;;;5035585;28;20167;-76
2022/03/05 05:42:18;;;;;;;4.70;2.83;;;5.60;80.00;;;;;;5033953;28;20041;-75
2022/03/05 05:44:44;;;;;;;5.75;3.65;;;5.60;80.20;;;;;;5035707;28;20029;-75
2022/03/05 05:47:10;;;;;;;5.60;3.00;;;5.60;80.50;;;;;;5034439;28;20408;-76
2022/03/05 05:49:36;;;;;;;5.63;3.05;;;5.60;80.40;;;;;;5035752;28;20037;-76
2022/03/05 05:52:03;;;;;;;6.88;3.20;;;5.70;80.20;;;;;;5040425;28;20055;-76
2022/03/05 05:54:28;;;;;;;5.97;2.88;;;5.70;80.40;;;;;;5053925;28;20040;-76
2022/03/05 05:56:54;;;;;;;3.97;2.97;;;5.70;80.90;;;;;;5055099;28;20021;-75
2022/03/05 05:59:20;;;;;;;3.40;2.55;;;5.70;80.60;;;;;;5054766;28;20057;-76
2022/03/05 06:01:46;;;;;;;4.22;2.90;;;5.70;80.40;;;;;;5041371;28;20036;-76
2022/03/05 06:04:12;;;;;;;6.63;2.92;;;5.80;80.00;;;;;;5044436;28;20033;-75
2022/03/05 06:06:37;;;;;;;4.35;2.28;;;5.80;80.00;;;;;;5037342;28;20107;-75
2022/03/05 06:09:04;;;;;;;5.20;2.85;;;5.90;80.00;;;;;;5053586;28;20466;-75
2022/03/05 06:11:30;;;;;;;6.45;3.13;;;5.80;80.00;;;;;;5049604;28;20036;-75
2022/03/05 06:13:56;;;;;;;4.30;2.72;;;5.90;80.20;;;;;;5051416;28;20014;-76
2022/03/05 06:16:22;;;;;;;5.47;3.47;;;5.90;80.40;;;;;;5046828;28;20041;-75
2022/03/05 06:18:48;;;;;;;4.93;2.90;;;5.80;80.60;;;;;;5053480;28;20495;-76
2022/03/05 06:21:14;;;;;;;6.85;3.10;;;5.90;80.50;;;;;;5055002;28;20032;-76
2022/03/05 06:23:40;;;;;;;3.15;2.80;;;5.90;80.30;;;;;;5043764;28;20022;-75
2022/03/05 06:26:06;;;;;;;4.95;2.60;;;5.90;80.20;;;;;;5033768;28;20068;-76
2022/03/05 06:28:33;;;;;;;3.45;2.92;;;5.90;80.30;;;;;;5046805;28;20036;-75
2022/03/05 06:31:02;;;;;;;3.90;2.83;;;6.00;80.10;;;;;;5053253;28;20025;-76
2022/03/05 06:33:28;;;;;;;5.72;3.10;;;6.00;80.30;;;;;;5049154;28;20119;-76
2022/03/05 06:35:55;;;;;;;3.88;2.90;;;6.00;80.30;;;;;;5052693;28;20037;-76
2022/03/05 06:38:21;;;;;;;5.10;2.92;;;6.00;80.40;;;;;;5037494;28;20051;-76
2022/03/05 06:40:47;;;;;;;5.80;3.13;;;6.00;80.30;;;;;;5033651;28;20387;-76
2022/03/05 06:43:13;;;;;;;4.65;2.67;;;6.00;80.40;;;;;;5034663;28;20029;-76
2022/03/05 06:45:39;;;;;;;4.70;2.90;;;6.00;80.30;;;;;;5042576;28;20063;-75
2022/03/05 06:48:05;;;;;;;11.40;3.35;;;6.00;80.80;;;;;;5033662;28;20499;-76
2022/03/05 06:50:32;;;;;;;4.85;3.33;;;6.10;80.40;;;;;;5034455;28;20033;-78
2022/03/05 06:52:57;;;;;;;4.82;2.75;;;6.10;80.30;;;;;;5040125;28;20483;-76
2022/03/05 06:55:23;;;;;;;4.70;3.00;;;6.20;80.50;;;;;;5041159;28;20056;-77
2022/03/05 06:57:50;;;;;;;4.80;3.25;;;6.20;80.30;;;;;;5033216;28;20067;-78
2022/03/05 07:00:16;;;;;;;3.80;2.72;;;6.20;80.30;;;;;;5033166;28;20041;-79
2022/03/05 07:02:42;;;;;;;5.05;3.05;;;6.20;80.40;;;;;;5035775;28;20025;-78
2022/03/05 07:05:09;;;;;;;6.55;2.97;;;6.40;80.10;;;;;;5053171;28;20166;-78
2022/03/05 07:07:35;;;;;;;6.60;3.65;;;6.40;80.00;;;;;;5052846;28;20507;-77
2022/03/05 07:10:03;;;;;;;6.28;3.15;;;6.50;79.70;;;;;;5036997;28;20040;-77
2022/03/05 07:12:28;;;;;;;5.70;3.03;;;6.60;79.70;;;;;;5036759;28;20065;-77
2022/03/05 07:14:54;;;;;;;5.65;3.58;;;6.60;79.80;;;;;;5038083;28;20519;-77
2022/03/05 07:17:19;;;;;;;6.32;3.40;;;6.70;79.70;;;;;;5038169;28;20026;-75
2022/03/05 07:19:45;;;;;;;4.55;2.40;;;6.70;79.70;;;;;;5066033;28;20021;-76
2022/03/05 07:22:11;;;;;;;3.25;2.67;;;6.90;79.50;;;;;;5061940;28;20034;-76
2022/03/05 07:24:37;;;;;;;5.00;3.00;;;6.90;79.40;;;;;;5048522;28;20025;-76
2022/03/05 07:27:04;;;;;;;4.97;2.75;;;7.00;79.10;;;;;;5057709;28;20029;-76
2022/03/05 07:29:29;;;;;;;3.67;2.60;;;7.00;79.10;;;;;;5050838;28;20120;-76
2022/03/05 07:31:55;;;;;;;3.47;2.45;;;7.10;79.40;;;;;;5037963;28;20068;-76
2022/03/05 07:34:21;;;;;;;6.07;3.13;;;7.40;78.50;;;;;;5037756;28;20041;-76
2022/03/05 07:36:47;;;;;;;4.60;2.58;;;7.40;78.50;;;;;;5037617;28;20041;-77
2022/03/05 07:51:56;;;;;;;3.22;2.60;;;7.80;79.30;;;;;;5072554;28;20411;-78
2022/03/05 07:54:23;;;;;;;3.25;2.70;;;9.90;73.80;;;;;;5071942;28;20083;-75
2022/03/05 07:56:50;;;;;;;3.78;2.28;;;11.80;69.10;;;;;;5070672;28;20067;-76
2022/03/05 07:59:15;;;;;;;3.17;2.17;;;13.40;64.70;;;;;;5052684;28;20021;-75
2022/03/05 08:01:41;;;;;;;2.15;1.92;;;14.60;59.60;;;;;;5071562;28;20031;-75
2022/03/05 08:04:07;;;;;;;5.70;2.30;;;15.50;55.60;;;;;;5069840;28;20048;-75
2022/03/05 08:06:32;;;;;;;6.47;2.30;;;15.70;53.90;;;;;;5053102;28;20028;-77
2022/03/05 08:08:59;;;;;;;3.05;2.17;;;15.80;51.40;;;;;;5053422;28;20039;-76
2022/03/05 08:11:25;;;;;;;6.22;2.70;;;15.80;53.10;;;;;;5068659;28;20032;-76
2022/03/05 08:13:51;;;;;;;6.50;3.03;;;15.80;53.10;;;;;;5063129;28;20032;-76
2022/03/05 08:16:17;;;;;;;6.75;3.25;;;15.80;52.10;;;;;;5070702;28;20032;-76
2022/03/05 08:18:42;;;;;;;5.80;2.90;;;15.90;52.00;;;;;;5053737;28;20017;-76
2022/03/05 08:21:08;;;;;;;5.93;2.90;;;16.30;51.30;;;;;;5073682;28;20044;-76
2022/03/05 08:23:33;;;;;;;7.93;3.05;;;16.80;51.10;;;;;;5057545;28;20471;-76
2022/03/05 08:25:59;;;;;;;9.05;3.70;;;17.20;49.60;;;;;;5073526;28;20033;-78
2022/03/05 08:28:25;;;;;;;5.85;3.53;;;16.90;50.10;;;;;;5073928;28;20016;-77
2022/03/05 08:30:51;;;;;;;10.60;3.80;;;17.00;50.10;;;;;;5042549;28;20048;-77
2022/03/05 08:33:17;;;;;;;6.97;3.30;;;16.40;48.90;;;;;;5060490;28;20470;-77
2022/03/05 08:35:43;;;;;;;9.93;3.90;;;16.80;49.40;;;;;;5070947;28;20054;-77
2022/03/05 08:38:09;;;;;;;7.47;3.63;;;16.80;49.00;;;;;;5071209;28;20037;-76
2022/03/05 08:40:34;;;;;;;6.63;3.75;;;16.40;49.10;;;;;;5059309;28;20032;-76
2022/03/05 08:43:00;;;;;;;9.60;3.85;;;15.30;51.70;;;;;;5067593;28;20027;-77
2022/03/05 08:45:26;;;;;;;14.38;4.63;;;14.50;54.60;;;;;;5061167;28;20021;-76
2022/03/05 08:47:52;;;;;;;6.13;4.00;;;14.20;53.90;;;;;;5067543;28;20035;-76
2022/03/05 08:50:18;;;;;;;9.23;4.43;;;14.00;55.50;;;;;;5067170;28;20072;-77
2022/03/05 08:52:44;;;;;;;11.20;5.22;;;14.00;55.10;;;;;;5071873;28;20013;-77
2022/03/05 08:55:12;;;;;;;9.93;4.97;;;14.00;55.50;;;;;;5085393;28;20548;-76
2022/03/05 08:57:39;;;;;;;8.85;4.95;;;14.40;54.00;;;;;;5051233;28;20052;-80
2022/03/05 09:00:07;;;;;;;9.15;5.82;;;15.20;52.40;;;;;;5050907;28;20027;-76
2022/03/05 09:02:32;;;;;;;8.80;4.93;;;15.30;50.30;;;;;;5041922;28;20040;-76
2022/03/05 09:04:58;;;;;;;8.75;5.32;;;15.50;50.30;;;;;;5048611;28;20562;-76
2022/03/05 09:07:24;;;;;;;8.82;5.22;;;16.20;50.10;;;;;;5056564;28;20025;-76
2022/03/05 09:09:49;;;;;;;8.30;5.13;;;16.80;48.40;;;;;;5039639;28;20544;-76
2022/03/05 09:12:15;;;;;;;9.40;5.35;;;17.20;46.20;;;;;;5040049;28;20025;-76
2022/03/05 09:14:41;;;;;;;8.45;5.18;;;16.70;47.00;;;;;;5057308;28;20029;-76
2022/03/05 09:17:07;;;;;;;9.02;5.03;;;16.10;47.80;;;;;;5046124;28;20029;-76
2022/03/05 09:19:32;;;;;;;11.15;6.43;;;15.90;49.00;;;;;;5059495;28;20059;-76
2022/03/05 09:21:58;;;;;;;9.82;5.35;;;15.90;48.30;;;;;;5057908;28;20028;-76
2022/03/05 09:24:24;;;;;;;9.80;5.18;;;15.70;49.30;;;;;;5057497;28;20131;-76
2022/03/05 09:26:49;;;;;;;11.20;5.38;;;15.80;48.60;;;;;;5052593;28;20026;-76
2022/03/05 09:29:16;;;;;;;8.50;4.70;;;15.30;50.20;;;;;;5078259;28;20032;-76
2022/03/05 09:31:42;;;;;;;10.13;5.07;;;14.80;51.10;;;;;;5077153;28;20025;-75
2022/03/05 09:34:07;;;;;;;8.25;4.53;;;14.20;51.80;;;;;;5054260;28;20053;-76
2022/03/05 09:36:33;;;;;;;10.27;4.70;;;14.20;52.70;;;;;;5037037;28;20502;-76
2022/03/05 09:38:59;;;;;;;7.70;5.70;;;14.80;51.70;;;;;;5047382;28;20071;-76
2022/03/05 09:41:25;;;;;;;8.00;6.38;;;15.20;50.30;;;;;;5075580;28;20032;-76
2022/03/05 09:43:51;;;;;;;9.00;5.82;;;14.80;50.00;;;;;;5065692;28;20025;-76
2022/03/05 09:46:22;;;;;;;10.20;6.03;;;15.30;48.20;;;;;;5056064;28;20024;-79
2022/03/05 09:48:52;;;;;;;7.65;4.70;;;15.40;48.50;;;;;;5054988;28;20491;-76
2022/03/05 09:51:20;;;;;;;8.82;5.70;;;15.50;47.50;;;;;;5056055;28;20140;-74
2022/03/05 09:53:46;;;;;;;5.70;4.55;;;16.40;46.70;;;;;;5056435;28;20033;-75
2022/03/05 09:56:12;;;;;;;5.38;4.75;;;16.30;45.10;;;;;;5054045;28;20044;-75
2022/03/05 09:58:38;;;;;;;8.27;6.00;;;16.00;46.60;;;;;;5039272;28;20021;-76
2022/03/05 10:01:04;;;;;;;7.28;6.03;;;16.60;45.50;;;;;;5055555;28;20024;-76
2022/03/05 10:03:42;;;;;;;6.85;4.50;;;16.50;45.70;;;;;;5054632;28;20079;-75
2022/03/05 10:06:21;;;;;;;6.15;4.68;;;16.20;44.60;;;;;;5052930;28;20036;-76
2022/03/05 10:08:50;;;;;;;8.45;4.40;;;16.00;46.20;;;;;;5034991;28;20823;-76
2022/03/05 10:11:16;;;;;;;5.90;4.15;;;15.40;45.30;;;;;;5037316;28;20033;-75
2022/03/05 10:13:42;;;;;;;19.98;15.60;;;16.40;45.20;;;;;;5052044;28;20558;-76
2022/03/05 10:16:28;;;;;;;7.65;6.32;;;16.70;44.10;;;;;;5052338;28;20367;-75
2022/03/05 10:18:54;;;;;;;5.65;3.50;;;16.50;44.40;;;;;;5048217;28;20506;-75
2022/03/05 10:21:30;;;;;;;6.22;4.68;;;16.20;45.10;;;;;;5054709;28;20030;-75
2022/03/05 10:24:09;;;;;;;5.13;4.10;;;15.20;45.60;;;;;;5053867;28;20021;-75
2022/03/05 10:26:55;;;;;;;7.25;3.63;;;14.90;46.60;;;;;;5038457;28;20032;-76
2022/03/05 10:29:34;;;;;;;5.80;3.47;;;14.20;49.40;;;;;;5049825;28;20040;-76
2022/03/05 10:32:06;;;;;;;8.13;4.13;;;13.90;50.30;;;;;;5041225;28;20391;-76
2022/03/05 10:34:56;;;;;;;9.20;4.13;;;13.70;49.90;;;;;;5054756;28;20081;-73
2022/03/05 10:37:23;;;;;;;6.80;3.83;;;13.10;50.40;;;;;;5052347;28;20059;-74
2022/03/05 10:39:51;;;;;;;8.18;3.95;;;12.90;52.50;;;;;;5037153;28;20036;-75
2022/03/05 10:42:25;;;;;;;6.05;4.35;;;12.60;52.30;;;;;;5037485;28;20128;-74
2022/03/05 10:45:04;;;;;;;10.55;6.95;;;12.80;52.40;;;;;;5055886;28;20032;-74
2022/03/05 10:47:42;;;;;;;7.07;4.13;;;13.20;51.70;;;;;;5053420;28;20028;-76
2022/03/05 10:50:28;;;;;;;7.20;3.83;;;13.20;50.90;;;;;;5043237;28;20056;-78
2022/03/05 10:53:01;;;;;;;4.80;3.35;;;13.40;51.30;;;;;;5037843;28;20025;-78
2022/03/05 10:55:37;;;;;;;5.90;4.00;;;13.40;50.30;;;;;;5053332;28;20043;-80
2022/03/05 10:58:17;;;;;;;12.07;7.13;;;12.90;50.20;;;;;;5055659;28;20561;-75
2022/03/05 11:00:46;;;;;;;8.02;5.53;;;13.00;51.00;;;;;;5051262;28;20029;-74
2022/03/05 11:03:12;;;;;;;8.85;6.05;;;13.10;51.50;;;;;;5053174;28;20028;-74
2022/03/05 11:05:38;;;;;;;5.85;4.20;;;12.80;51.30;;;;;;5054397;28;20041;-74
2022/03/05 11:08:06;;;;;;;6.53;4.10;;;12.70;51.50;;;;;;5051939;28;20503;-76
2022/03/05 11:10:32;;;;;;;7.00;3.17;;;12.50;51.70;;;;;;5048550;28;20116;-76
2022/03/05 11:13:02;;;;;;;6.05;3.15;;;12.00;50.20;;;;;;5035859;28;20071;-75
2022/03/05 11:15:28;;;;;;;;;;;11.70;50.80;;;;;;5035414;28;20033;-75
2022/03/05 11:17:55;;;;;;;5.80;3.75;;;11.80;51.30;;;;;;5053795;28;19958;-76
2022/03/05 11:20:21;;;;;;;6.30;3.42;;;12.20;50.60;;;;;;5051581;28;20098;-75
2022/03/05 11:22:51;;;;;;;4.32;3.30;;;12.20;51.50;;;;;;5053966;28;20036;-75
2022/03/05 11:25:18;;;;;;;;;;;12.20;51.10;;;;;;5033970;28;20013;-75
2022/03/05 11:27:54;;;;;;;4.85;2.80;;;12.00;50.30;;;;;;5053296;28;19913;-76
2022/03/05 11:30:20;;;;;;;4.75;2.50;;;12.30;49.60;;;;;;5050930;28;20029;-75
2022/03/05 11:32:46;;;;;;;6.53;3.95;;;12.70;48.00;;;;;;5054631;28;20555;-75
2022/03/05 11:35:28;;;;;;;4.65;3.30;;;12.70;48.80;;;;;;5053636;28;20025;-74
2022/03/05 11:37:54;;;;;;;8.55;4.43;;;12.50;50.20;;;;;;5036380;28;20075;-75
2022/03/05 11:40:41;;;;;;;7.15;4.45;;;12.50;51.60;;;;;;5052183;28;20627;-75
2022/03/05 11:43:23;;;;;;;7.07;4.22;;;12.40;51.60;;;;;;5052107;28;20021;-75
2022/03/05 11:46:01;;;;;;;6.07;3.22;;;12.20;52.70;;;;;;5053814;28;20028;-74
2022/03/05 11:48:39;;;;;;;6.50;3.95;;;12.40;53.00;;;;;;5020122;28;20506;-75
2022/03/05 11:51:14;;;;;;;6.57;4.35;;;12.50;52.80;;;;;;5051287;28;20049;-75
2022/03/05 11:53:42;;;;;;;4.88;3.47;;;12.70;52.10;;;;;;5038132;28;20466;-77
2022/03/05 11:56:25;;;;;;;8.25;4.40;;;12.80;51.20;;;;;;5040978;28;20088;-76
2022/03/05 11:58:50;;;;;;;5.20;3.47;;;12.60;52.10;;;;;;5040057;28;20029;-78
2022/03/05 12:01:50;;;;;;;7.40;3.00;;;12.30;53.20;;;;;;5042593;28;20086;-74
2022/03/05 12:04:18;;;;;;;5.03;3.30;;;12.00;53.50;;;;;;4989564;28;20072;-74
2022/03/05 12:06:49;;;;;;;7.00;3.67;;;11.80;54.30;;;;;;5038472;28;20029;-75
2022/03/05 12:09:43;;;;;;;5.43;3.03;;;11.80;54.90;;;;;;5053340;28;20023;-74
2022/03/05 12:12:14;;;;;;;5.18;3.13;;;11.90;55.10;;;;;;5039709;28;20036;-75
2022/03/05 12:14:55;;;;;;;6.57;3.42;;;11.90;55.80;;;;;;5034501;28;20104;-76
2022/03/05 12:17:26;;;;;;;6.15;3.33;;;11.90;54.60;;;;;;5031326;28;20033;-76
2022/03/05 12:19:53;;;;;;;7.85;3.30;;;11.70;55.10;;;;;;5042197;28;20029;-74
2022/03/05 12:22:19;;;;;;;5.85;3.47;;;11.60;56.30;;;;;;5050067;28;20075;-74
2022/03/05 12:24:45;;;;;;;7.10;3.75;;;11.50;57.30;;;;;;5050087;28;20021;-74
2022/03/05 12:27:16;;;;;;;8.82;3.83;;;11.50;57.10;;;;;;5047057;28;20105;-74
2022/03/05 12:29:52;;;;;;;5.47;3.58;;;11.80;56.10;;;;;;5028627;28;20553;-74
2022/03/05 12:32:19;;;;;;;6.72;3.60;;;12.10;57.00;;;;;;5029211;28;20057;-74
2022/03/05 12:34:45;;;;;;;3.90;2.83;;;12.30;55.10;;;;;;5023986;28;20020;-75
2022/03/05 12:37:12;;;;;;;7.57;3.40;;;12.40;54.50;;;;;;5033844;28;20040;-74
2022/03/05 12:39:45;;;;;;;7.60;2.97;;;12.00;54.00;;;;;;5052211;28;20014;-75
2022/03/05 12:42:11;;;;;;;8.45;3.80;;;11.80;55.30;;;;;;5051459;28;20021;-74
2022/03/05 12:44:38;;;;;;;6.88;3.63;;;12.10;55.90;;;;;;5045215;28;20095;-75
2022/03/05 12:47:05;;;;;;;4.90;3.15;;;12.50;55.40;;;;;;5050695;28;20762;-74
2022/03/05 12:49:31;;;;;;;6.68;2.83;;;12.80;54.10;;;;;;5033030;28;20029;-74
2022/03/05 12:51:57;;;;;;;4.30;3.25;;;12.80;53.70;;;;;;5053088;28;20044;-74
2022/03/05 12:54:23;;;;;;;4.13;2.80;;;12.70;53.70;;;;;;5047524;28;20021;-77
2022/03/05 12:56:57;;;;;;;4.70;3.15;;;12.50;53.80;;;;;;5049525;28;20021;-77
2022/03/05 12:59:24;;;;;;;7.20;3.03;;;13.10;54.00;;;;;;5047197;28;20029;-76
2022/03/05 13:01:51;;;;;;;5.28;2.28;;;13.40;52.60;;;;;;5054469;28;20104;-74
2022/03/05 13:04:17;;;;;;;3.95;2.20;;;13.30;53.10;;;;;;5054315;28;20017;-79
2022/03/05 13:06:47;;;;;;;5.70;2.38;;;13.00;51.90;;;;;;5055515;28;20021;-77